Time;durP1;ratioP1;P1;durP2;ratioP2;P2;SDS_P1;SDS_P2;PMS_P1;PMS_P2;Temp;Humidity;BMP_temperature;BMP_pressure;BME280_temperature;BME280_humidity;BME280_pressure;Samples;Min_cycle;Max_cycle;Signal;HPM_P1;HPM_P2
2023/06/02 00:00:07;;;;;;;77.33;30.87;;;;;;;9.04;100.00;102144.09;7364558;19;20410;-35
2023/06/02 00:02:37;;;;;;;49.53;15.73;;;;;;;8.95;100.00;102139.19;7388650;19;20410;-34
2023/06/02 00:05:10;;;;;;;85.37;29.70;;;;;;;9.03;100.00;102122.59;7364785;19;20427;-35
2023/06/02 00:07:41;;;;;;;48.73;12.33;;;;;;;8.94;100.00;102111.69;7390196;19;20390;-35
2023/06/02 00:10:12;;;;;;;21.17;5.57;;;;;;;9.03;100.00;102101.13;7365110;19;20398;-34
2023/06/02 00:12:42;;;;;;;39.53;9.83;;;;;;;9.01;100.00;102093.28;7387460;19;20438;-35
2023/06/02 00:15:12;;;;;;;45.87;14.83;;;;;;;9.11;100.00;102084.53;7364716;19;20487;-34
2023/06/02 00:17:42;;;;;;;30.37;9.53;;;;;;;9.08;100.00;102073.13;7388582;19;20467;-35
2023/06/02 00:20:17;;;;;;;136.67;48.20;;;;;;;9.05;100.00;102073.81;7364877;19;20392;-35
2023/06/02 00:22:47;;;;;;;96.07;36.63;;;;;;;9.21;100.00;102069.69;7393431;19;20440;-35
2023/06/02 00:25:17;;;;;;;106.80;39.77;;;;;;;9.17;100.00;102076.31;7366348;19;20455;-35
2023/06/02 00:27:47;;;;;;;33.10;7.63;;;;;;;9.08;100.00;102071.41;7390769;19;21170;-35
2023/06/02 00:30:17;;;;;;;23.23;5.50;;;;;;;8.93;100.00;102068.72;7366922;19;21273;-35
2023/06/02 00:32:47;;;;;;;27.47;5.63;;;;;;;8.97;100.00;102064.66;7388332;19;20464;-35
2023/06/02 00:35:19;;;;;;;26.63;4.93;;;;;;;8.94;100.00;102055.06;7365673;19;20431;-34
2023/06/02 00:37:49;;;;;;;46.13;15.73;;;;;;;8.95;100.00;102049.09;7391145;19;20463;-35
2023/06/02 00:40:18;;;;;;;96.83;36.70;;;;;;;9.00;100.00;102041.69;7364933;19;20893;-34
2023/06/02 00:42:48;;;;;;;38.07;14.20;;;;;;;9.03;100.00;102032.50;7388344;19;20511;-35
2023/06/02 00:45:18;;;;;;;36.27;5.83;;;;;;;8.87;100.00;102024.53;7366819;19;21011;-35
2023/06/02 00:47:48;;;;;;;35.50;10.87;;;;;;;8.97;100.00;102019.22;7388398;19;20402;-35
2023/06/02 00:50:20;;;;;;;79.73;28.03;;;;;;;8.97;100.00;102001.19;7364585;19;20411;-34
2023/06/02 00:52:53;;;;;;;43.67;13.70;;;;;;;8.96;100.00;101994.25;7387429;19;21046;-35
2023/06/02 00:55:22;;;;;;;64.30;21.80;;;;;;;8.88;100.00;101982.56;7365228;19;20424;-35
2023/06/02 00:57:56;;;;;;;44.57;14.63;;;;;;;8.90;100.00;101981.88;7389058;19;20383;-35
2023/06/02 01:00:26;;;;;;;28.43;7.00;;;;;;;8.87;100.00;101963.63;7361919;19;20428;-34
2023/06/02 01:02:57;;;;;;;19.50;5.10;;;;;;;8.91;100.00;101949.28;7387985;19;20427;-35
2023/06/02 01:05:30;;;;;;;29.73;5.47;;;;;;;8.86;100.00;101938.69;7365609;19;20398;-35
2023/06/02 01:08:02;;;;;;;70.83;23.00;;;;;;;8.84;100.00;101937.69;7387846;19;20391;-35
2023/06/02 01:10:32;;;;;;;34.33;12.53;;;;;;;8.84;100.00;101929.97;7363634;19;20395;-35
2023/06/02 01:13:02;;;;;;;28.30;6.33;;;;;;;8.73;100.00;101921.50;7387287;19;20439;-35
2023/06/02 01:15:31;;;;;;;65.10;22.17;;;;;;;8.79;100.00;101903.03;7360977;19;20479;-35
2023/06/02 01:18:02;;;;;;;25.40;4.77;;;;;;;8.71;100.00;101889.66;7390118;19;20421;-35
2023/06/02 01:20:36;;;;;;;37.63;5.60;;;;;;;8.54;100.00;101882.47;7363001;19;20431;-35
2023/06/02 01:23:15;;;;;;;32.10;6.17;;;;;;;8.54;100.00;101867.03;7387585;19;20994;-35
2023/06/02 01:25:49;;;;;;;23.20;5.10;;;;;;;8.54;100.00;101843.88;7364364;19;20445;-35
2023/06/02 01:28:19;;;;;;;28.10;5.30;;;;;;;8.49;100.00;101831.59;7394428;19;20400;-35
2023/06/02 01:30:50;;;;;;;25.93;4.30;;;;;;;8.48;100.00;101811.78;7371526;19;20398;-35
2023/06/02 01:33:23;;;;;;;22.90;5.07;;;;;;;8.48;100.00;101801.50;7393608;19;20985;-35
2023/06/02 01:35:59;;;;;;;20.03;4.80;;;;;;;8.46;100.00;101781.63;7371499;19;20857;-35
2023/06/02 01:38:29;;;;;;;26.30;5.27;;;;;;;8.40;100.00;101765.78;7397801;19;20471;-34
2023/06/02 01:41:03;;;;;;;22.50;5.47;;;;;;;8.43;100.00;101745.38;7371611;19;20441;-34
2023/06/02 01:43:33;;;;;;;32.00;9.50;;;;;;;8.45;100.00;101729.28;7393981;19;20407;-35
2023/06/02 01:46:03;;;;;;;20.60;5.00;;;;;;;8.42;100.00;101712.75;7374947;19;21018;-35
2023/06/02 01:48:33;;;;;;;33.17;5.40;;;;;;;8.36;100.00;101697.81;7394315;19;20762;-34
2023/06/02 01:51:03;;;;;;;23.87;5.63;;;;;;;8.42;100.00;101687.94;7370909;19;20438;-34
2023/06/02 01:53:33;;;;;;;21.63;4.80;;;;;;;8.35;100.00;101670.28;7395364;19;20447;-35
2023/06/02 01:56:05;;;;;;;38.27;6.33;;;;;;;8.40;100.00;101665.47;7371257;19;20391;-35
2023/06/02 01:58:36;;;;;;;24.33;5.73;;;;;;;8.36;100.00;101656.69;7396975;19;20435;-35
2023/06/02 02:01:05;;;;;;;21.73;5.50;;;;;;;8.32;100.00;101640.13;7371507;19;20402;-35
2023/06/02 02:03:37;;;;;;;32.00;7.37;;;;;;;8.23;100.00;101626.69;7392748;19;21476;-35
2023/06/02 02:06:07;;;;;;;20.73;4.47;;;;;;;8.29;100.00;101619.38;7370092;19;20408;-35
2023/06/02 02:08:36;;;;;;;32.07;5.30;;;;;;;8.30;100.00;101615.13;7394004;19;20396;-35
2023/06/02 02:11:08;;;;;;;25.50;7.23;;;;;;;8.33;100.00;101594.75;7370024;19;20407;-35
2023/06/02 02:13:38;;;;;;;25.10;5.47;;;;;;;8.31;100.00;101588.63;7393642;19;20443;-35
2023/06/02 02:16:08;;;;;;;21.00;6.20;;;;;;;8.22;100.00;101589.78;7369384;19;20478;-34
2023/06/02 02:18:37;;;;;;;54.63;14.70;;;;;;;8.30;100.00;101582.56;7397644;19;20400;-35
2023/06/02 02:21:07;;;;;;;26.30;6.33;;;;;;;8.30;100.00;101576.56;7370192;19;20452;-34
2023/06/02 02:23:36;;;;;;;22.23;4.20;;;;;;;8.24;100.00;101566.75;7394023;19;20491;-35
2023/06/02 02:26:09;;;;;;;25.00;5.50;;;;;;;8.23;100.00;101558.19;7373717;19;20526;-35
2023/06/02 02:28:39;;;;;;;31.13;4.50;;;;;;;8.17;100.00;101555.22;7396170;19;20475;-35
2023/06/02 02:31:09;;;;;;;42.43;13.30;;;;;;;8.17;100.00;101546.59;7373755;19;20437;-35
2023/06/02 02:33:38;;;;;;;25.33;5.27;;;;;;;8.12;100.00;101538.59;7392650;19;20468;-34
2023/06/02 02:36:08;;;;;;;28.97;5.30;;;;;;;8.05;100.00;101537.28;7368781;19;20427;-35
2023/06/02 02:38:38;;;;;;;29.27;8.30;;;;;;;8.05;100.00;101531.28;7395558;19;20398;-35
2023/06/02 02:41:10;;;;;;;29.37;7.70;;;;;;;8.06;100.00;101535.63;7366944;19;20407;-34
2023/06/02 02:43:40;;;;;;;25.90;5.93;;;;;;;8.09;100.00;101529.00;7393319;19;20439;-35
2023/06/02 02:46:09;;;;;;;19.70;4.50;;;;;;;8.09;100.00;101526.44;7369107;19;20513;-35
2023/06/02 02:48:39;;;;;;;33.50;5.63;;;;;;;8.04;100.00;101526.91;7396321;19;20403;-35
2023/06/02 02:51:08;;;;;;;34.47;10.40;;;;;;;8.01;100.00;101519.03;7369523;19;20427;-34
2023/06/02 02:53:38;;;;;;;24.37;4.83;;;;;;;8.02;100.00;101520.78;7392096;19;20439;-35
2023/06/02 02:56:11;;;;;;;30.63;5.83;;;;;;;7.94;100.00;101528.91;7369032;19;20411;-35
2023/06/02 02:58:40;;;;;;;24.93;5.53;;;;;;;7.83;100.00;101527.31;7395088;19;20391;-34
2023/06/02 03:01:15;;;;;;;28.97;7.00;;;;;;;7.81;100.00;101528.91;7368105;19;20407;-35
2023/06/02 03:03:45;;;;;;;22.20;4.90;;;;;;;7.80;100.00;101525.44;7392206;19;20423;-34
2023/06/02 03:06:18;;;;;;;22.53;5.00;;;;;;;7.83;100.00;101525.66;7368153;19;20434;-34
2023/06/02 03:08:48;;;;;;;18.80;4.87;;;;;;;7.84;100.00;101522.28;7392545;19;20396;-35
2023/06/02 03:11:21;;;;;;;18.37;5.00;;;;;;;7.82;100.00;101516.16;7369439;19;20399;-35
2023/06/02 03:13:50;;;;;;;29.10;4.57;;;;;;;7.86;100.00;101519.81;7392549;19;20455;-35
2023/06/02 03:16:20;;;;;;;22.87;5.30;;;;;;;8.61;100.00;101524.53;7370501;19;20429;-35
2023/06/02 03:18:50;;;;;;;31.07;8.23;;;;;;;8.32;100.00;101520.97;7392639;19;20744;-34
2023/06/02 03:21:21;;;;;;;38.83;12.03;;;;;;;8.68;100.00;101511.25;7370572;19;20415;-35
2023/06/02 03:23:51;;;;;;;38.17;13.30;;;;;;;9.04;100.00;101500.50;7391432;19;20415;-34
2023/06/02 03:26:26;;;;;;;31.37;9.97;;;;;;;9.23;100.00;101506.75;7370166;19;20439;-35
2023/06/02 03:28:57;;;;;;;27.90;6.20;;;;;;;9.01;100.00;101506.38;7368796;19;20380;-35
2023/06/02 03:31:28;;;;;;;25.37;7.93;;;;;;;8.96;100.00;101523.22;7391485;19;20398;-34
2023/06/02 03:33:58;;;;;;;25.53;5.27;;;;;;;8.73;100.00;101530.41;7364782;19;20868;-34
2023/06/02 03:36:28;;;;;;;28.20;6.23;;;;;;;8.85;100.00;101549.97;7389147;19;20814;-35
2023/06/02 03:38:58;;;;;;;23.00;5.40;;;;;;;8.94;100.00;101563.41;7369910;19;20468;-34
2023/06/02 03:41:30;;;;;;;23.80;6.40;;;;;;;9.13;100.00;101569.69;7390501;19;20455;-35
2023/06/02 03:44:00;;;;;;;16.97;4.53;;;;;;;8.72;100.00;101585.22;7366703;19;20493;-35
2023/06/02 03:46:30;;;;;;;21.97;6.23;;;;;;;8.82;100.00;101596.13;7389113;19;20431;-35
2023/06/02 03:49:00;;;;;;;16.90;5.20;;;;;;;8.40;100.00;101594.34;7365340;19;20388;-34
2023/06/02 03:51:30;;;;;;;19.70;6.03;;;;;;;8.58;100.00;101604.06;7394189;19;20475;-35
2023/06/02 03:53:59;;;;;;;27.60;5.00;;;;;;;8.49;100.00;101607.81;7367367;19;20435;-34
2023/06/02 03:56:32;;;;;;;23.53;7.47;;;;;;;8.36;100.00;101620.69;7390992;19;20455;-34
2023/06/02 03:59:02;;;;;;;22.53;5.00;;;;;;;8.43;100.00;101620.28;7368048;19;20419;-35
2023/06/02 04:01:32;;;;;;;29.43;6.97;;;;;;;8.28;100.00;101621.84;7387986;19;20919;-35
2023/06/02 04:04:02;;;;;;;19.70;5.00;;;;;;;8.20;100.00;101623.94;7365051;19;20423;-34
2023/06/02 04:06:32;;;;;;;21.20;4.83;;;;;;;8.26;100.00;101624.34;7389165;19;20392;-34
2023/06/02 04:09:02;;;;;;;22.53;5.23;;;;;;;8.26;100.00;101631.16;7363962;19;20811;-35
2023/06/02 04:11:34;;;;;;;20.50;5.57;;;;;;;8.26;100.00;101631.16;7388603;19;20403;-35
2023/06/02 04:14:04;;;;;;;17.50;6.07;;;;;;;8.42;100.00;101631.34;7366772;19;20506;-34
2023/06/02 04:16:34;;;;;;;24.83;5.80;;;;;;;8.42;100.00;101621.06;7388491;19;20391;-35
2023/06/02 04:19:05;;;;;;;17.53;5.00;;;;;;;8.58;100.00;101622.06;7368246;19;20721;-34
2023/06/02 04:21:35;;;;;;;26.73;7.50;;;;;;;8.53;100.00;101629.50;7387957;19;20407;-35
2023/06/02 04:24:05;;;;;;;21.70;5.43;;;;;;;8.63;100.00;101633.56;7370617;19;20450;-34
2023/06/02 04:26:37;;;;;;;34.23;6.30;;;;;;;8.70;100.00;101624.53;7389890;19;20463;-34
2023/06/02 04:29:06;;;;;;;18.93;5.07;;;;;;;8.84;100.00;101621.16;7368451;19;20451;-35
2023/06/02 04:31:43;;;;;;;35.97;5.37;;;;;;;8.70;100.00;101624.53;7388689;19;20802;-35
2023/06/02 04:34:13;;;;;;;14.70;4.80;;;;;;;8.88;100.00;101622.25;7366255;19;21474;-35
2023/06/02 04:36:43;;;;;;;15.10;5.67;;;;;;;8.95;100.00;101634.69;7390555;19;20412;-35
2023/06/02 04:39:12;;;;;;;14.73;5.57;;;;;;;9.32;100.00;101636.06;7367746;19;21340;-35
2023/06/02 04:41:46;;;;;;;15.60;5.43;;;;;;;9.23;100.00;101641.53;7387836;19;20429;-35
2023/06/02 04:44:16;;;;;;;19.97;5.67;;;;;;;9.38;100.00;101641.59;7365283;19;20411;-35
2023/06/02 04:46:46;;;;;;;19.93;5.47;;;;;;;9.44;100.00;101648.81;7388210;19;20404;-35
2023/06/02 04:49:16;;;;;;;20.03;5.30;;;;;;;9.26;100.00;101664.91;7368648;19;20423;-35
2023/06/02 04:51:45;;;;;;;19.80;4.43;;;;;;;9.22;100.00;101670.66;7388548;19;20391;-34
2023/06/02 04:54:15;;;;;;;21.80;4.67;;;;;;;9.19;100.00;101683.34;7364918;19;20510;-35
2023/06/02 04:56:48;;;;;;;20.43;5.07;;;;;;;9.20;100.00;101682.56;7389634;19;20379;-34
2023/06/02 04:59:19;;;;;;;17.70;4.90;;;;;;;9.40;100.00;101685.47;7367646;19;20390;-35
2023/06/02 05:01:48;;;;;;;20.73;4.27;;;;;;;9.40;100.00;101699.25;7393477;19;20399;-35
2023/06/02 05:04:19;;;;;;;28.50;7.87;;;;;;;9.49;100.00;101701.47;7371130;19;20399;-35
2023/06/02 05:06:49;;;;;;;15.57;5.20;;;;;;;9.57;100.00;101708.00;7396950;19;20455;-35
2023/06/02 05:09:18;;;;;;;24.77;5.40;;;;;;;9.66;100.00;101701.63;7371299;19;20485;-35
2023/06/02 05:11:50;;;;;;;21.53;5.70;;;;;;;9.74;100.00;101713.28;7393947;19;20467;-35
2023/06/02 05:14:20;;;;;;;21.13;4.53;;;;;;;9.97;100.00;101717.25;7370678;19;20423;-35
2023/06/02 05:16:51;;;;;;;26.23;9.40;;;;;;;10.05;100.00;101730.59;7394342;19;20403;-35
2023/06/02 05:19:20;;;;;;;26.40;7.43;;;;;;;10.38;100.00;101730.81;7370038;19;20420;-35
2023/06/02 05:21:50;;;;;;;26.80;8.37;;;;;;;10.42;100.00;101730.97;7395592;19;20394;-34
2023/06/02 05:24:20;;;;;;;34.20;14.90;;;;;;;10.60;100.00;101739.81;7370946;19;20395;-35
2023/06/02 05:26:52;;;;;;;42.13;19.80;;;;;;;10.98;100.00;101740.19;7393820;19;20393;-35
2023/06/02 05:29:21;;;;;;;49.07;21.30;;;;;;;11.00;100.00;101753.19;7370438;19;20392;-35
2023/06/02 05:31:51;;;;;;;49.40;21.70;;;;;;;10.86;100.00;101766.22;7392733;19;20386;-35
2023/06/02 05:34:21;;;;;;;52.73;24.07;;;;;;;11.13;100.00;101758.22;7374436;19;20438;-35
2023/06/02 05:36:51;;;;;;;18.50;7.83;;;;;;;11.08;100.00;101764.84;7394039;19;20402;-35
2023/06/02 05:39:20;;;;;;;40.07;16.83;;;;;;;11.02;100.00;101773.13;7370601;19;20770;-35
2023/06/02 05:41:53;;;;;;;34.10;16.07;;;;;;;11.07;100.00;101771.72;7393168;19;20414;-36
2023/06/02 05:44:22;;;;;;;30.60;11.57;;;;;;;11.35;100.00;101777.50;7369726;19;20410;-36
2023/06/02 05:46:52;;;;;;;40.13;20.47;;;;;;;11.57;100.00;101786.41;7396038;19;20403;-36
2023/06/02 05:49:22;;;;;;;32.83;16.83;;;;;;;11.57;100.00;101786.41;7371056;19;20433;-36
2023/06/02 05:51:51;;;;;;;65.37;32.10;;;;;;;11.75;100.00;101783.97;7391988;19;20933;-36
2023/06/02 05:54:21;;;;;;;42.03;19.83;;;;;;;11.80;100.00;101797.13;7371635;19;20423;-36
2023/06/02 05:56:54;;;;;;;26.13;12.83;;;;;;;11.80;100.00;101803.16;7392508;19;20396;-36
2023/06/02 05:59:23;;;;;;;32.47;15.20;;;;;;;11.92;100.00;101802.94;7366879;19;20401;-36
2023/06/02 06:01:53;;;;;;;42.97;20.33;;;;;;;11.88;100.00;101799.31;7392086;19;20388;-36
2023/06/02 06:04:23;;;;;;;19.53;5.17;;;;;;;11.73;100.00;101793.31;7369590;19;20397;-36
2023/06/02 06:06:53;;;;;;;14.87;6.07;;;;;;;11.72;100.00;101795.03;7392285;19;20396;-36
2023/06/02 06:09:22;;;;;;;20.27;5.90;;;;;;;11.61;100.00;101790.97;7369624;19;20396;-36
2023/06/02 06:11:57;;;;;;;17.07;5.50;;;;;;;11.51;100.00;101784.41;7390783;19;20929;-36
2023/06/02 06:14:26;;;;;;;15.30;4.90;;;;;;;11.50;100.00;101780.06;7369619;19;20977;-35
2023/06/02 06:16:56;;;;;;;18.70;7.67;;;;;;;11.56;100.00;101776.91;7392592;19;20401;-36
2023/06/02 06:19:26;;;;;;;16.63;5.20;;;;;;;11.55;100.00;101776.03;7370157;19;20384;-36
2023/06/02 06:21:55;;;;;;;21.50;5.40;;;;;;;11.52;100.00;101769.78;7394644;19;20416;-36
2023/06/02 06:24:27;;;;;;;18.60;5.90;;;;;;;11.56;100.00;101769.13;7371135;19;20407;-36
2023/06/02 06:26:59;;;;;;;20.50;7.20;;;;;;;11.65;100.00;101772.25;7392242;19;20411;-37
2023/06/02 06:29:29;;;;;;;14.53;5.53;;;;;;;11.72;100.00;101774.34;7369627;19;20422;-36
2023/06/02 06:31:59;;;;;;;18.00;5.40;;;;;;;11.80;100.00;101772.13;7394120;19;20482;-36
2023/06/02 06:34:29;;;;;;;12.13;4.83;;;;;;;11.83;100.00;101780.06;7372520;19;20429;-36
2023/06/02 06:36:59;;;;;;;14.73;4.70;;;;;;;11.92;100.00;101790.00;7391874;19;20867;-36
2023/06/02 06:39:28;;;;;;;20.30;6.90;;;;;;;12.07;100.00;101786.47;7369170;19;20844;-36
2023/06/02 06:42:01;;;;;;;10.80;4.50;;;;;;;12.17;100.00;101783.56;7391244;19;20916;-36
2023/06/02 06:44:31;;;;;;;12.87;3.93;;;;;;;12.25;100.00;101792.59;7368686;19;20786;-36
2023/06/02 06:47:00;;;;;;;9.83;4.40;;;;;;;12.35;100.00;101799.13;7398039;19;20393;-36
2023/06/02 06:49:30;;;;;;;18.07;4.30;;;;;;;12.36;100.00;101794.88;7369202;19;20404;-36
2023/06/02 06:52:00;;;;;;;14.90;4.80;;;;;;;12.35;100.00;101798.28;7390705;19;20418;-36
2023/06/02 06:54:29;;;;;;;11.90;3.80;;;;;;;12.40;100.00;101801.94;7368327;19;20418;-36
2023/06/02 06:57:01;;;;;;;18.90;4.13;;;;;;;12.41;100.00;101801.16;7391339;19;20406;-36
2023/06/02 06:59:31;;;;;;;7.33;3.30;;;;;;;12.42;100.00;101800.34;7368710;19;20418;-36
2023/06/02 07:02:00;;;;;;;9.13;3.83;;;;;;;12.37;100.00;101797.50;7390434;19;20406;-36
2023/06/02 07:04:30;;;;;;;9.30;3.63;;;;;;;12.40;100.00;101797.69;7369182;19;20416;-36
2023/06/02 07:07:00;;;;;;;11.00;4.10;;;;;;;12.37;100.00;101796.63;7391792;19;20396;-36
2023/06/02 07:09:30;;;;;;;10.60;4.10;;;;;;;12.37;100.00;101799.22;7365761;19;20435;-36
2023/06/02 07:12:02;;;;;;;15.03;4.40;;;;;;;12.48;100.00;101800.66;7392890;19;20362;-36
2023/06/02 07:14:31;;;;;;;9.70;4.20;;;;;;;12.63;100.00;101794.47;7368186;19;20489;-36
2023/06/02 07:17:01;;;;;;;10.40;4.07;;;;;;;12.75;100.00;101802.84;7391617;19;20465;-36
2023/06/02 07:19:31;;;;;;;11.20;4.30;;;;;;;12.87;100.00;101810.31;7369308;19;20422;-36
2023/06/02 07:22:00;;;;;;;10.33;3.50;;;;;;;12.96;100.00;101815.06;7391359;19;20395;-36
2023/06/02 07:24:30;;;;;;;8.00;3.50;;;;;;;13.01;100.00;101823.97;7367367;19;20417;-34
2023/06/02 07:27:03;;;;;;;8.00;3.30;;;;;;;12.98;100.00;101829.00;7390771;19;20421;-34
2023/06/02 07:29:33;;;;;;;12.33;3.50;;;;;;;12.94;100.00;101827.06;7368317;19;20890;-34
2023/06/02 07:32:02;;;;;;;5.40;2.63;;;;;;;12.85;100.00;101839.53;7389963;19;20403;-34
2023/06/02 07:34:32;;;;;;;5.33;2.73;;;;;;;12.83;100.00;101840.38;7367781;19;20406;-34
2023/06/02 07:37:02;;;;;;;9.30;3.93;;;;;;;12.76;100.00;101851.22;7391803;19;20399;-34
2023/06/02 07:39:32;;;;;;;12.70;4.00;;;;;;;12.69;100.00;101852.63;7366032;19;20385;-34
2023/06/02 07:42:04;;;;;;;7.30;4.50;;;;;;;12.65;100.00;101867.91;7388909;19;20394;-35
2023/06/02 07:44:34;;;;;;;9.67;4.40;;;;;;;12.64;100.00;101858.38;7368771;19;20453;-34
2023/06/02 07:47:04;;;;;;;15.13;5.00;;;;;;;12.58;100.00;101852.88;7389797;19;20408;-34
2023/06/02 07:49:35;;;;;;;13.57;5.10;;;;;;;12.57;100.00;101859.78;7370565;19;20421;-34
2023/06/02 07:52:04;;;;;;;22.37;5.50;;;;;;;12.65;100.00;101855.88;7389773;19;20396;-34
2023/06/02 07:54:34;;;;;;;17.40;5.00;;;;;;;12.83;100.00;101848.13;7366861;19;21280;-34
2023/06/02 07:57:07;;;;;;;11.90;4.83;;;;;;;12.95;100.00;101849.56;7390964;19;20762;-34
2023/06/02 07:59:37;;;;;;;14.83;5.70;;;;;;;13.02;100.00;101846.44;7367275;19;20402;-34
2023/06/02 08:02:08;;;;;;;18.50;5.40;;;;;;;13.12;100.00;101841.75;7390729;19;20387;-34
2023/06/02 08:04:37;;;;;;;12.73;4.60;;;;;;;13.01;100.00;101843.78;7366507;19;20399;-34
2023/06/02 08:07:08;;;;;;;12.33;4.70;;;;;;;12.99;100.00;101850.59;7389529;19;20949;-34
2023/06/02 08:09:37;;;;;;;9.50;4.60;;;;;;;12.95;100.00;101846.97;7366676;19;20741;-34
2023/06/02 08:12:10;;;;;;;9.80;4.80;;;;;;;12.93;100.00;101853.78;7390862;19;20953;-33
2023/06/02 08:14:40;;;;;;;7.50;3.80;;;;;;;12.94;100.00;101856.47;7364812;19;21021;-34
2023/06/02 08:17:12;;;;;;;11.23;3.97;;;;;;;12.89;100.00;101855.34;7393310;19;20754;-34
2023/06/02 08:19:42;;;;;;;8.43;3.33;;;;;;;13.00;100.00;101858.44;7366695;19;20414;-34
2023/06/02 08:22:12;;;;;;;15.40;4.43;;;;;;;13.23;100.00;101859.56;7386423;19;20494;-33
2023/06/02 08:24:41;;;;;;;8.87;3.60;;;;;;;13.59;100.00;101865.59;7368225;19;20427;-34
2023/06/02 08:27:14;;;;;;;7.90;3.53;;;;;;;13.93;100.00;101866.28;7394174;19;20419;-34
2023/06/02 08:29:44;;;;;;;13.63;3.47;;;;;;;14.01;100.00;101876.16;7370518;19;20399;-34
2023/06/02 08:32:13;;;;;;;7.70;3.37;;;;;;;13.89;100.00;101889.47;7391821;19;20404;-34
2023/06/02 08:34:44;;;;;;;4.63;2.30;;;;;;;13.79;100.00;101910.59;7368786;19;20425;-33
2023/06/02 08:37:16;;;;;;;9.50;3.20;;;;;;;13.79;100.00;101920.97;7391299;19;20471;-34
2023/06/02 08:39:46;;;;;;;13.63;6.40;;;;;;;13.73;100.00;101931.06;7370241;19;20441;-35
2023/06/02 08:42:22;;;;;;;16.23;3.10;;;;;;;13.68;100.00;101932.56;7390424;19;20882;-34
2023/06/02 08:44:52;;;;;;;10.43;4.73;;;;;;;13.69;100.00;101939.53;7364247;19;20985;-34
2023/06/02 08:47:28;;;;;;;6.23;2.63;;;;;;;13.70;100.00;101951.66;7390837;19;20490;-34
2023/06/02 08:50:01;;;;;;;10.60;4.00;;;;;;;13.75;100.00;101955.38;7366014;19;20943;-34
2023/06/02 08:52:31;;;;;;;14.37;6.20;;;;;;;13.74;100.00;101962.25;7389322;19;20437;-33
2023/06/02 08:55:03;;;;;;;8.67;3.63;;;;;;;13.83;100.00;101979.06;7367018;19;20426;-34
2023/06/02 08:57:35;;;;;;;8.87;2.90;;;;;;;14.01;100.00;101974.75;7391227;19;20496;-34
2023/06/02 09:00:08;;;;;;;12.00;3.90;;;;;;;14.04;100.00;101976.59;7367217;19;20481;-34
2023/06/02 09:02:38;;;;;;;9.80;4.27;;;;;;;14.19;100.00;101963.47;7390792;19;20415;-34
2023/06/02 09:05:09;;;;;;;10.27;4.07;;;;;;;14.24;100.00;101968.84;7366854;19;20469;-34
2023/06/02 09:07:38;;;;;;;10.47;4.40;;;;;;;14.47;100.00;101969.94;7389944;19;20395;-34
2023/06/02 09:10:09;;;;;;;10.27;3.70;;;;;;;14.70;100.00;101957.97;7367183;19;20473;-34
2023/06/02 09:12:53;;;;;;;8.70;2.60;;;;;;;14.53;100.00;101970.19;7390983;19;20407;-34
2023/06/02 09:15:23;;;;;;;20.83;9.93;;;;;;;14.53;100.00;101984.88;7365119;19;20947;-34
2023/06/02 09:17:53;;;;;;;5.67;2.83;;;;;;;14.73;100.00;101988.38;7392991;19;20424;-34
2023/06/02 09:20:33;;;;;;;7.63;3.03;;;;;;;14.82;100.00;101983.59;7364546;19;20441;-34
2023/06/02 09:23:02;;;;;;;13.93;7.43;;;;;;;14.81;100.00;101987.03;7392532;19;20975;-34
2023/06/02 09:25:34;;;;;;;28.20;13.87;;;;;;;14.86;100.00;101995.00;7364595;19;20423;-34
2023/06/02 09:28:06;;;;;;;21.37;11.80;;;;;;;14.87;100.00;101996.78;7392399;19;20455;-34
2023/06/02 09:30:36;;;;;;;22.43;12.23;;;;;;;15.08;100.00;102012.44;7364983;19;20916;-34
2023/06/02 09:33:11;;;;;;;15.80;6.63;;;;;;;15.37;100.00;102027.50;7391136;19;20783;-34
2023/06/02 09:35:43;;;;;;;15.93;6.83;;;;;;;15.60;100.00;102037.97;7365058;19;20469;-34
2023/06/02 09:38:15;;;;;;;14.30;7.17;;;;;;;15.49;100.00;102061.81;7392364;19;20417;-34
2023/06/02 09:40:45;;;;;;;10.57;4.17;;;;;;;15.67;100.00;102060.81;7365548;19;20450;-34
2023/06/02 09:43:19;;;;;;;6.07;2.37;;;;;;;15.69;100.00;102085.16;7388403;19;20512;-36
2023/06/02 09:46:03;;;;;;;10.13;2.73;;;;;;;16.01;100.00;102093.44;7364841;19;20538;-34
2023/06/02 09:48:35;;;;;;;10.10;4.40;;;;;;;15.90;100.00;102120.75;7396941;19;20417;-34
2023/06/02 09:51:23;;;;;;;5.00;2.27;;;;;;;15.88;100.00;102127.56;7370731;19;20872;-34
2023/06/02 09:53:55;;;;;;;5.17;1.50;;;;;;;16.05;100.00;102139.59;7396904;19;20457;-35
2023/06/02 09:56:27;;;;;;;7.67;2.73;;;;;;;15.93;100.00;102150.41;7374581;19;20435;-34
2023/06/02 09:58:59;;;;;;;7.73;3.20;;;;;;;16.02;100.00;102178.53;7373373;19;20414;-34
2023/06/02 10:01:29;;;;;;;8.43;3.13;;;;;;;16.19;100.00;102186.16;7394158;19;20420;-34
2023/06/02 10:03:58;;;;;;;11.27;4.67;;;;;;;16.41;100.00;102210.47;7372898;19;20441;-34
2023/06/02 10:06:42;;;;;;;8.07;2.43;;;;;;;16.81;100.00;102209.44;7395099;19;20828;-34
2023/06/02 10:09:27;;;;;;;11.93;5.20;;;;;;;16.81;100.00;102229.44;7377686;19;20421;-34
2023/06/02 10:12:08;;;;;;;4.87;1.93;;;;;;;16.52;100.00;102230.03;7395711;19;20422;-34
2023/06/02 10:14:59;;;;;;;12.70;4.37;;;;;;;16.34;100.00;102222.34;7372936;19;20434;-35
2023/06/02 10:17:35;;;;;;;5.30;1.93;;;;;;;16.10;100.00;102223.09;7395248;19;20502;-35
2023/06/02 10:20:21;;;;;;;14.07;2.20;;;;;;;16.20;100.00;102224.38;7371924;19;20410;-34
2023/06/02 10:23:10;;;;;;;7.03;2.30;;;;;;;16.28;100.00;102238.63;7396197;19;20456;-34
2023/06/02 10:25:51;;;;;;;7.87;2.60;;;;;;;16.19;100.00;102248.63;7372165;19;20468;-35
2023/06/02 10:28:21;;;;;;;17.43;6.10;;;;;;;16.46;100.00;102232.41;7396069;19;20906;-33
2023/06/02 10:31:07;;;;;;;7.90;2.67;;;;;;;16.41;100.00;102234.78;7372585;19;20565;-34
2023/06/02 10:33:45;;;;;;;9.23;3.07;;;;;;;16.36;100.00;102236.31;7395537;19;20454;-34
2023/06/02 10:36:17;;;;;;;7.13;2.43;;;;;;;16.37;100.00;102237.22;7371486;19;20442;-34
2023/06/02 10:38:48;;;;;;;6.80;2.90;;;;;;;16.36;100.00;102238.03;7396206;19;20869;-34
2023/06/02 10:41:21;;;;;;;7.43;2.70;;;;;;;16.28;100.00;102242.94;7372070;19;20993;-35
2023/06/02 10:44:22;;;;;;;5.73;2.20;;;;;;;16.42;100.00;102254.78;7394695;19;20800;-34
2023/06/02 10:47:22;;;;;;;26.70;10.03;;;;;;;16.79;100.00;102257.13;7375907;19;20844;-35
2023/06/02 10:49:58;;;;;;;4.90;1.73;;;;;;;17.03;100.00;102243.31;7372684;19;20407;-37
2023/06/02 10:52:29;;;;;;;7.80;1.67;;;;;;;17.30;100.00;102250.41;7394651;19;20932;-40
2023/06/02 10:55:30;;;;;;;8.10;1.60;;;;;;;17.79;100.00;102241.78;7372734;19;20810;-43
2023/06/02 10:58:01;;;;;;;6.03;1.50;;;;;;;17.65;100.00;102207.34;7395878;19;20399;-43
2023/06/02 11:00:45;;;;;;;6.50;1.80;;;;;;;17.33;100.00;102178.38;7362999;19;20419;-43
2023/06/02 11:03:32;;;;;;;6.40;2.33;;;;;;;16.64;100.00;102164.50;7394555;19;20454;-44
2023/06/02 11:06:21;;;;;;;7.73;2.30;;;;;;;16.45;100.00;102149.84;7371207;19;20419;-42
2023/06/02 11:08:51;;;;;;;8.13;1.80;;;;;;;16.35;100.00;102129.50;7398156;19;20502;-44
2023/06/02 11:11:53;;;;;;;8.10;2.27;;;;;;;16.44;100.00;102143.78;7370861;19;21021;-41
2023/06/02 11:14:23;;;;;;;5.93;2.33;;;;;;;16.34;100.00;102141.63;7370609;19;20395;-43
2023/06/02 11:17:23;;;;;;;8.97;2.90;;;;;;;16.12;100.00;102127.75;7395875;19;20757;-44
2023/06/02 11:19:52;;;;;;;10.20;3.70;;;;;;;16.40;100.00;102114.94;7370225;19;20422;-42
2023/06/02 11:22:25;;;;;;;9.40;1.80;;;;;;;16.21;100.00;102124.63;7393010;19;20773;-41
2023/06/02 11:24:54;;;;;;;7.50;1.80;;;;;;;16.23;100.00;102128.19;7371482;19;20494;-40
2023/06/02 11:27:37;;;;;;;5.57;1.83;;;;;;;16.60;100.00;102114.00;7394411;19;20411;-44
2023/06/02 11:30:13;;;;;;;15.30;5.50;;;;;;;16.93;100.00;102064.78;7370319;19;20406;-43
2023/06/02 11:32:43;;;;;;;10.53;4.90;;;;;;;17.22;100.00;102025.88;7395042;19;20430;-41
2023/06/02 11:35:13;;;;;;;8.40;2.90;;;;;;;17.48;100.00;101971.09;7370713;19;20442;-43